sensor_id;sensor_type;location;lat;lon;timestamp;temperature;humidity
67157;SHT31;54086;50.126;8.710;2023-04-25T00:00:19;9.05;90.58
67157;SHT31;54086;50.126;8.710;2023-04-25T00:02:45;8.92;90.63
67157;SHT31;54086;50.126;8.710;2023-04-25T00:05:12;9.12;90.73
67157;SHT31;54086;50.126;8.710;2023-04-25T00:07:37;9.18;89.75
67157;SHT31;54086;50.126;8.710;2023-04-25T00:10:04;9.18;89.94
67157;SHT31;54086;50.126;8.710;2023-04-25T00:12:29;9.28;90.37
67157;SHT31;54086;50.126;8.710;2023-04-25T00:14:55;9.32;90.35
67157;SHT31;54086;50.126;8.710;2023-04-25T00:17:23;9.23;90.37
67157;SHT31;54086;50.126;8.710;2023-04-25T00:19:50;9.22;90.71
67157;SHT31;54086;50.126;8.710;2023-04-25T00:22:15;9.14;90.60
67157;SHT31;54086;50.126;8.710;2023-04-25T00:24:41;9.20;90.47
67157;SHT31;54086;50.126;8.710;2023-04-25T00:27:06;9.23;90.61
67157;SHT31;54086;50.126;8.710;2023-04-25T00:29:32;9.18;89.80
67157;SHT31;54086;50.126;8.710;2023-04-25T00:31:57;9.19;89.73
67157;SHT31;54086;50.126;8.710;2023-04-25T00:34:23;9.12;89.63
67157;SHT31;54086;50.126;8.710;2023-04-25T00:36:48;9.23;89.98
67157;SHT31;54086;50.126;8.710;2023-04-25T00:39:13;9.26;89.77
67157;SHT31;54086;50.126;8.710;2023-04-25T00:41:39;9.26;89.85
67157;SHT31;54086;50.126;8.710;2023-04-25T00:44:05;9.32;90.14
67157;SHT31;54086;50.126;8.710;2023-04-25T00:46:32;9.30;89.71
67157;SHT31;54086;50.126;8.710;2023-04-25T00:48:57;9.28;89.60
67157;SHT31;54086;50.126;8.710;2023-04-25T00:51:23;9.29;89.77
67157;SHT31;54086;50.126;8.710;2023-04-25T00:53:50;9.30;89.87
67157;SHT31;54086;50.126;8.710;2023-04-25T00:56:16;9.19;90.15
67157;SHT31;54086;50.126;8.710;2023-04-25T00:58:42;9.26;90.15
67157;SHT31;54086;50.126;8.710;2023-04-25T01:01:08;9.25;89.93
67157;SHT31;54086;50.126;8.710;2023-04-25T01:03:35;9.35;90.28
67157;SHT31;54086;50.126;8.710;2023-04-25T01:06:09;9.42;89.88
67157;SHT31;54086;50.126;8.710;2023-04-25T01:08:35;9.36;89.79
67157;SHT31;54086;50.126;8.710;2023-04-25T01:11:01;9.26;89.66
67157;SHT31;54086;50.126;8.710;2023-04-25T01:13:27;9.20;90.32
67157;SHT31;54086;50.126;8.710;2023-04-25T01:15:52;9.18;90.41
67157;SHT31;54086;50.126;8.710;2023-04-25T01:18:18;9.14;90.55
67157;SHT31;54086;50.126;8.710;2023-04-25T01:20:44;9.08;90.70
67157;SHT31;54086;50.126;8.710;2023-04-25T01:23:10;9.11;89.46
67157;SHT31;54086;50.126;8.710;2023-04-25T01:25:36;9.19;89.53
67157;SHT31;54086;50.126;8.710;2023-04-25T01:28:02;9.20;89.24
67157;SHT31;54086;50.126;8.710;2023-04-25T01:30:28;9.16;88.89
67157;SHT31;54086;50.126;8.710;2023-04-25T01:32:57;9.25;89.51
67157;SHT31;54086;50.126;8.710;2023-04-25T01:35:23;9.25;89.26
67157;SHT31;54086;50.126;8.710;2023-04-25T01:37:49;9.28;89.95
67157;SHT31;54086;50.126;8.710;2023-04-25T01:40:14;9.23;89.19
67157;SHT31;54086;50.126;8.710;2023-04-25T01:42:42;9.25;88.96
67157;SHT31;54086;50.126;8.710;2023-04-25T01:45:09;9.32;89.04
67157;SHT31;54086;50.126;8.710;2023-04-25T01:47:36;9.25;88.51
67157;SHT31;54086;50.126;8.710;2023-04-25T01:50:02;9.20;88.07
67157;SHT31;54086;50.126;8.710;2023-04-25T01:52:28;9.22;87.30
67157;SHT31;54086;50.126;8.710;2023-04-25T01:54:54;9.28;87.28
67157;SHT31;54086;50.126;8.710;2023-04-25T01:57:19;9.28;87.09
67157;SHT31;54086;50.126;8.710;2023-04-25T01:59:45;9.29;87.08
67157;SHT31;54086;50.126;8.710;2023-04-25T02:02:11;9.30;87.49
67157;SHT31;54086;50.126;8.710;2023-04-25T02:04:36;9.36;88.31
67157;SHT31;54086;50.126;8.710;2023-04-25T02:07:03;9.28;86.92
67157;SHT31;54086;50.126;8.710;2023-04-25T02:09:28;9.28;87.04
67157;SHT31;54086;50.126;8.710;2023-04-25T02:11:54;9.22;86.64
67157;SHT31;54086;50.126;8.710;2023-04-25T02:14:19;9.26;86.98
67157;SHT31;54086;50.126;8.710;2023-04-25T02:16:45;9.29;87.09
67157;SHT31;54086;50.126;8.710;2023-04-25T02:19:11;9.26;87.18
67157;SHT31;54086;50.126;8.710;2023-04-25T02:21:37;9.26;86.58
67157;SHT31;54086;50.126;8.710;2023-04-25T02:24:03;9.19;85.71
67157;SHT31;54086;50.126;8.710;2023-04-25T02:26:29;9.19;85.99
67157;SHT31;54086;50.126;8.710;2023-04-25T02:28:56;9.19;86.08
67157;SHT31;54086;50.126;8.710;2023-04-25T02:31:21;9.08;85.33
67157;SHT31;54086;50.126;8.710;2023-04-25T02:33:47;9.15;85.78
67157;SHT31;54086;50.126;8.710;2023-04-25T02:36:13;9.16;86.29
67157;SHT31;54086;50.126;8.710;2023-04-25T02:38:38;9.22;85.77
67157;SHT31;54086;50.126;8.710;2023-04-25T02:41:04;9.18;85.58
67157;SHT31;54086;50.126;8.710;2023-04-25T02:43:29;9.23;86.41
67157;SHT31;54086;50.126;8.710;2023-04-25T02:45:54;9.08;86.28
67157;SHT31;54086;50.126;8.710;2023-04-25T02:48:20;9.12;85.96
67157;SHT31;54086;50.126;8.710;2023-04-25T02:50:45;9.11;85.89
67157;SHT31;54086;50.126;8.710;2023-04-25T02:53:11;9.15;86.57
67157;SHT31;54086;50.126;8.710;2023-04-25T02:55:36;9.12;85.85
67157;SHT31;54086;50.126;8.710;2023-04-25T02:58:04;9.14;86.06
67157;SHT31;54086;50.126;8.710;2023-04-25T03:00:29;9.15;87.07
67157;SHT31;54086;50.126;8.710;2023-04-25T03:02:55;9.18;87.04
67157;SHT31;54086;50.126;8.710;2023-04-25T03:05:20;9.16;87.14
67157;SHT31;54086;50.126;8.710;2023-04-25T03:07:46;9.18;87.18
67157;SHT31;54086;50.126;8.710;2023-04-25T03:10:11;9.14;86.48
67157;SHT31;54086;50.126;8.710;2023-04-25T03:12:37;9.22;87.30
67157;SHT31;54086;50.126;8.710;2023-04-25T03:15:03;9.20;86.85
67157;SHT31;54086;50.126;8.710;2023-04-25T03:17:28;9.18;86.83
67157;SHT31;54086;50.126;8.710;2023-04-25T03:19:55;9.07;86.34
67157;SHT31;54086;50.126;8.710;2023-04-25T03:22:20;9.09;87.28
67157;SHT31;54086;50.126;8.710;2023-04-25T03:24:46;8.98;88.07
67157;SHT31;54086;50.126;8.710;2023-04-25T03:27:12;8.93;87.88
67157;SHT31;54086;50.126;8.710;2023-04-25T03:29:37;8.92;88.81
67157;SHT31;54086;50.126;8.710;2023-04-25T03:32:03;8.91;88.08
67157;SHT31;54086;50.126;8.710;2023-04-25T03:34:28;8.91;87.66
67157;SHT31;54086;50.126;8.710;2023-04-25T03:36:54;8.95;88.03
67157;SHT31;54086;50.126;8.710;2023-04-25T03:39:19;8.97;87.40
67157;SHT31;54086;50.126;8.710;2023-04-25T03:41:44;8.98;87.60
67157;SHT31;54086;50.126;8.710;2023-04-25T03:44:10;8.97;88.44
67157;SHT31;54086;50.126;8.710;2023-04-25T03:46:35;8.87;89.05
67157;SHT31;54086;50.126;8.710;2023-04-25T03:49:01;8.95;89.23
67157;SHT31;54086;50.126;8.710;2023-04-25T03:51:26;8.99;88.93
67157;SHT31;54086;50.126;8.710;2023-04-25T03:53:52;8.80;88.36
67157;SHT31;54086;50.126;8.710;2023-04-25T03:56:17;8.80;89.08
67157;SHT31;54086;50.126;8.710;2023-04-25T03:58:43;8.91;89.33
67157;SHT31;54086;50.126;8.710;2023-04-25T04:01:08;8.81;87.42
67157;SHT31;54086;50.126;8.710;2023-04-25T04:03:34;8.84;87.40
67157;SHT31;54086;50.126;8.710;2023-04-25T04:06:01;8.88;88.41
67157;SHT31;54086;50.126;8.710;2023-04-25T04:08:27;8.93;89.57
67157;SHT31;54086;50.126;8.710;2023-04-25T04:10:53;8.88;89.63
67157;SHT31;54086;50.126;8.710;2023-04-25T04:13:18;8.89;89.75
67157;SHT31;54086;50.126;8.710;2023-04-25T04:15:43;8.87;89.88
67157;SHT31;54086;50.126;8.710;2023-04-25T04:18:09;8.72;89.85
67157;SHT31;54086;50.126;8.710;2023-04-25T04:20:34;8.70;89.67
67157;SHT31;54086;50.126;8.710;2023-04-25T04:23:01;8.68;89.84
67157;SHT31;54086;50.126;8.710;2023-04-25T04:25:26;8.61;89.96
67157;SHT31;54086;50.126;8.710;2023-04-25T04:27:52;8.54;90.15
67157;SHT31;54086;50.126;8.710;2023-04-25T04:30:23;8.49;90.59
67157;SHT31;54086;50.126;8.710;2023-04-25T04:32:56;8.57;88.93
67157;SHT31;54086;50.126;8.710;2023-04-25T04:35:22;8.51;85.44
67157;SHT31;54086;50.126;8.710;2023-04-25T04:37:47;8.57;84.64
67157;SHT31;54086;50.126;8.710;2023-04-25T04:40:13;8.63;82.89
67157;SHT31;54086;50.126;8.710;2023-04-25T04:42:41;8.68;83.94
67157;SHT31;54086;50.126;8.710;2023-04-25T04:45:07;8.61;82.50
67157;SHT31;54086;50.126;8.710;2023-04-25T04:47:32;8.49;82.36
67157;SHT31;54086;50.126;8.710;2023-04-25T04:49:59;8.46;83.32
67157;SHT31;54086;50.126;8.710;2023-04-25T04:52:24;8.46;83.67
67157;SHT31;54086;50.126;8.710;2023-04-25T04:54:50;8.49;82.99
67157;SHT31;54086;50.126;8.710;2023-04-25T04:57:15;8.53;82.09
67157;SHT31;54086;50.126;8.710;2023-04-25T04:59:50;8.39;81.39
67157;SHT31;54086;50.126;8.710;2023-04-25T05:02:16;8.20;81.50
67157;SHT31;54086;50.126;8.710;2023-04-25T05:04:42;8.19;82.82
67157;SHT31;54086;50.126;8.710;2023-04-25T05:07:07;8.20;82.96
67157;SHT31;54086;50.126;8.710;2023-04-25T05:09:32;8.26;82.43
67157;SHT31;54086;50.126;8.710;2023-04-25T05:11:58;8.19;81.29
67157;SHT31;54086;50.126;8.710;2023-04-25T05:14:23;8.16;81.17
67157;SHT31;54086;50.126;8.710;2023-04-25T05:16:49;8.19;81.48
67157;SHT31;54086;50.126;8.710;2023-04-25T05:19:14;8.28;81.91
67157;SHT31;54086;50.126;8.710;2023-04-25T05:21:40;8.30;81.87
67157;SHT31;54086;50.126;8.710;2023-04-25T05:24:05;8.30;82.04
67157;SHT31;54086;50.126;8.710;2023-04-25T05:26:31;8.30;81.53
67157;SHT31;54086;50.126;8.710;2023-04-25T05:28:59;8.33;81.67
67157;SHT31;54086;50.126;8.710;2023-04-25T05:31:25;8.29;81.66
67157;SHT31;54086;50.126;8.710;2023-04-25T05:33:50;8.33;81.54
67157;SHT31;54086;50.126;8.710;2023-04-25T05:36:16;8.28;81.09
67157;SHT31;54086;50.126;8.710;2023-04-25T05:38:41;8.32;81.66
67157;SHT31;54086;50.126;8.710;2023-04-25T05:41:07;8.37;80.93
67157;SHT31;54086;50.126;8.710;2023-04-25T05:43:32;8.46;79.42
67157;SHT31;54086;50.126;8.710;2023-04-25T05:45:58;8.47;81.06
67157;SHT31;54086;50.126;8.710;2023-04-25T05:48:24;8.64;80.08
67157;SHT31;54086;50.126;8.710;2023-04-25T05:50:49;8.70;79.86
67157;SHT31;54086;50.126;8.710;2023-04-25T05:53:16;8.77;79.82
67157;SHT31;54086;50.126;8.710;2023-04-25T05:55:42;8.70;78.72
67157;SHT31;54086;50.126;8.710;2023-04-25T05:58:07;8.68;76.82
67157;SHT31;54086;50.126;8.710;2023-04-25T06:00:33;8.77;77.00
67157;SHT31;54086;50.126;8.710;2023-04-25T06:02:58;8.68;78.86
67157;SHT31;54086;50.126;8.710;2023-04-25T06:05:24;8.81;80.14
67157;SHT31;54086;50.126;8.710;2023-04-25T06:07:50;8.68;79.34
67157;SHT31;54086;50.126;8.710;2023-04-25T06:10:15;8.59;80.07
67157;SHT31;54086;50.126;8.710;2023-04-25T06:12:41;8.49;80.49
67157;SHT31;54086;50.126;8.710;2023-04-25T06:15:07;8.65;80.54
67157;SHT31;54086;50.126;8.710;2023-04-25T06:17:35;8.59;80.04
67157;SHT31;54086;50.126;8.710;2023-04-25T06:20:01;8.59;80.07
67157;SHT31;54086;50.126;8.710;2023-04-25T06:22:28;8.47;80.11
67157;SHT31;54086;50.126;8.710;2023-04-25T06:24:54;8.59;79.49
67157;SHT31;54086;50.126;8.710;2023-04-25T06:27:22;8.57;78.44
67157;SHT31;54086;50.126;8.710;2023-04-25T06:29:47;8.67;78.57
67157;SHT31;54086;50.126;8.710;2023-04-25T06:32:13;8.93;77.95
67157;SHT31;54086;50.126;8.710;2023-04-25T06:34:38;8.93;75.35
67157;SHT31;54086;50.126;8.710;2023-04-25T06:37:03;8.60;75.42
67157;SHT31;54086;50.126;8.710;2023-04-25T06:39:29;8.77;75.68
67157;SHT31;54086;50.126;8.710;2023-04-25T06:41:55;8.81;75.82
67157;SHT31;54086;50.126;8.710;2023-04-25T06:44:20;8.97;74.60
67157;SHT31;54086;50.126;8.710;2023-04-25T06:46:48;9.09;74.62
67157;SHT31;54086;50.126;8.710;2023-04-25T06:49:13;9.18;74.63
67157;SHT31;54086;50.126;8.710;2023-04-25T06:51:40;9.19;74.24
67157;SHT31;54086;50.126;8.710;2023-04-25T06:54:05;9.43;74.67
67157;SHT31;54086;50.126;8.710;2023-04-25T06:56:31;9.23;74.44
67157;SHT31;54086;50.126;8.710;2023-04-25T06:58:56;9.42;73.44
67157;SHT31;54086;50.126;8.710;2023-04-25T07:01:21;9.32;73.88
67157;SHT31;54086;50.126;8.710;2023-04-25T07:03:47;9.59;73.89
67157;SHT31;54086;50.126;8.710;2023-04-25T07:06:12;9.63;72.62
67157;SHT31;54086;50.126;8.710;2023-04-25T07:08:38;9.87;72.01
67157;SHT31;54086;50.126;8.710;2023-04-25T07:11:03;10.04;72.08
67157;SHT31;54086;50.126;8.710;2023-04-25T07:13:29;10.12;72.30
67157;SHT31;54086;50.126;8.710;2023-04-25T07:15:55;10.05;70.69
67157;SHT31;54086;50.126;8.710;2023-04-25T07:18:20;10.00;70.23
67157;SHT31;54086;50.126;8.710;2023-04-25T07:20:46;10.19;71.24
67157;SHT31;54086;50.126;8.710;2023-04-25T07:23:11;10.38;70.55
67157;SHT31;54086;50.126;8.710;2023-04-25T07:25:36;10.35;70.94
67157;SHT31;54086;50.126;8.710;2023-04-25T07:28:02;10.49;70.27
67157;SHT31;54086;50.126;8.710;2023-04-25T07:30:27;10.29;71.27
67157;SHT31;54086;50.126;8.710;2023-04-25T07:32:53;10.41;70.80
67157;SHT31;54086;50.126;8.710;2023-04-25T07:35:18;10.21;71.41
67157;SHT31;54086;50.126;8.710;2023-04-25T07:37:44;10.39;71.40
67157;SHT31;54086;50.126;8.710;2023-04-25T07:40:09;10.27;71.76
67157;SHT31;54086;50.126;8.710;2023-04-25T07:42:35;10.39;71.21
67157;SHT31;54086;50.126;8.710;2023-04-25T07:47:35;10.19;71.17
67157;SHT31;54086;50.126;8.710;2023-04-25T07:50:02;10.15;71.92
67157;SHT31;54086;50.126;8.710;2023-04-25T07:52:28;10.45;70.09
67157;SHT31;54086;50.126;8.710;2023-04-25T07:54:54;10.72;68.87
67157;SHT31;54086;50.126;8.710;2023-04-25T07:57:20;10.63;67.77
67157;SHT31;54086;50.126;8.710;2023-04-25T07:59:45;10.72;68.42
67157;SHT31;54086;50.126;8.710;2023-04-25T08:02:11;10.66;67.16
67157;SHT31;54086;50.126;8.710;2023-04-25T08:04:36;10.80;67.63
67157;SHT31;54086;50.126;8.710;2023-04-25T08:07:01;10.97;67.44
67157;SHT31;54086;50.126;8.710;2023-04-25T08:09:27;11.45;66.89
67157;SHT31;54086;50.126;8.710;2023-04-25T08:11:53;11.57;65.63
67157;SHT31;54086;50.126;8.710;2023-04-25T08:14:18;11.52;65.45
67157;SHT31;54086;50.126;8.710;2023-04-25T08:16:44;11.78;65.80
67157;SHT31;54086;50.126;8.710;2023-04-25T08:19:10;11.79;65.09
67157;SHT31;54086;50.126;8.710;2023-04-25T08:21:36;11.55;65.21
67157;SHT31;54086;50.126;8.710;2023-04-25T08:24:01;11.52;65.99
67157;SHT31;54086;50.126;8.710;2023-04-25T08:26:28;11.32;66.28
67157;SHT31;54086;50.126;8.710;2023-04-25T08:28:54;11.26;65.92
67157;SHT31;54086;50.126;8.710;2023-04-25T08:31:20;11.01;65.18
67157;SHT31;54086;50.126;8.710;2023-04-25T08:33:46;10.92;65.27
67157;SHT31;54086;50.126;8.710;2023-04-25T08:36:11;11.18;65.75
67157;SHT31;54086;50.126;8.710;2023-04-25T08:38:37;11.27;64.35
67157;SHT31;54086;50.126;8.710;2023-04-25T08:41:03;11.11;63.73
67157;SHT31;54086;50.126;8.710;2023-04-25T08:43:29;10.97;65.04
67157;SHT31;54086;50.126;8.710;2023-04-25T08:45:59;10.80;65.00
67157;SHT31;54086;50.126;8.710;2023-04-25T08:48:28;11.34;64.33
67157;SHT31;54086;50.126;8.710;2023-04-25T08:51:02;11.47;64.03
67157;SHT31;54086;50.126;8.710;2023-04-25T08:53:30;11.59;63.88
67157;SHT31;54086;50.126;8.710;2023-04-25T08:55:57;11.69;63.28
67157;SHT31;54086;50.126;8.710;2023-04-25T08:58:23;11.50;63.32
67157;SHT31;54086;50.126;8.710;2023-04-25T09:00:51;12.06;61.62
67157;SHT31;54086;50.126;8.710;2023-04-25T09:03:18;12.40;60.31
67157;SHT31;54086;50.126;8.710;2023-04-25T09:05:44;12.92;58.99
67157;SHT31;54086;50.126;8.710;2023-04-25T09:08:11;13.35;57.61
67157;SHT31;54086;50.126;8.710;2023-04-25T09:10:38;14.15;56.04
67157;SHT31;54086;50.126;8.710;2023-04-25T09:13:14;14.76;54.54
67157;SHT31;54086;50.126;8.710;2023-04-25T09:15:55;14.93;53.78
67157;SHT31;54086;50.126;8.710;2023-04-25T09:18:34;14.29;53.71
67157;SHT31;54086;50.126;8.710;2023-04-25T09:21:10;14.65;55.18
67157;SHT31;54086;50.126;8.710;2023-04-25T09:23:44;13.84;56.24
67157;SHT31;54086;50.126;8.710;2023-04-25T09:26:17;13.43;58.17
67157;SHT31;54086;50.126;8.710;2023-04-25T09:28:43;13.52;58.24
67157;SHT31;54086;50.126;8.710;2023-04-25T09:31:11;14.15;56.58
67157;SHT31;54086;50.126;8.710;2023-04-25T09:33:37;14.79;55.04
67157;SHT31;54086;50.126;8.710;2023-04-25T09:36:05;14.44;51.98
67157;SHT31;54086;50.126;8.710;2023-04-25T09:38:39;14.86;52.53
67157;SHT31;54086;50.126;8.710;2023-04-25T09:41:06;14.95;51.24
67157;SHT31;54086;50.126;8.710;2023-04-25T09:43:32;15.20;51.32
67157;SHT31;54086;50.126;8.710;2023-04-25T09:45:58;15.10;51.94
67157;SHT31;54086;50.126;8.710;2023-04-25T09:48:26;14.99;52.09
67157;SHT31;54086;50.126;8.710;2023-04-25T09:51:13;15.47;51.55
67157;SHT31;54086;50.126;8.710;2023-04-25T09:53:46;15.68;51.17
67157;SHT31;54086;50.126;8.710;2023-04-25T09:56:15;14.44;53.15
67157;SHT31;54086;50.126;8.710;2023-04-25T09:58:42;14.32;53.66
67157;SHT31;54086;50.126;8.710;2023-04-25T10:01:09;14.20;53.82
67157;SHT31;54086;50.126;8.710;2023-04-25T10:03:36;13.90;54.20
67157;SHT31;54086;50.126;8.710;2023-04-25T10:06:07;14.05;54.11
67157;SHT31;54086;50.126;8.710;2023-04-25T10:08:37;14.03;54.45
67157;SHT31;54086;50.126;8.710;2023-04-25T10:11:07;14.07;55.00
67157;SHT31;54086;50.126;8.710;2023-04-25T10:13:34;13.70;55.56
67157;SHT31;54086;50.126;8.710;2023-04-25T10:16:02;14.93;53.39
67157;SHT31;54086;50.126;8.710;2023-04-25T10:18:29;15.16;52.53
67157;SHT31;54086;50.126;8.710;2023-04-25T10:20:57;14.34;53.26
67157;SHT31;54086;50.126;8.710;2023-04-25T10:23:25;14.18;54.00
67157;SHT31;54086;50.126;8.710;2023-04-25T10:25:53;14.46;53.80
67157;SHT31;54086;50.126;8.710;2023-04-25T10:28:19;14.07;54.87
67157;SHT31;54086;50.126;8.710;2023-04-25T10:31:01;13.69;55.54
67157;SHT31;54086;50.126;8.710;2023-04-25T10:33:36;13.36;56.64
67157;SHT31;54086;50.126;8.710;2023-04-25T10:36:21;12.87;59.23
67157;SHT31;54086;50.126;8.710;2023-04-25T10:38:51;12.25;62.59
67157;SHT31;54086;50.126;8.710;2023-04-25T10:41:20;12.00;63.44
67157;SHT31;54086;50.126;8.710;2023-04-25T10:43:49;11.88;64.17
67157;SHT31;54086;50.126;8.710;2023-04-25T10:46:28;11.81;64.13
67157;SHT31;54086;50.126;8.710;2023-04-25T10:48:59;11.83;64.47
67157;SHT31;54086;50.126;8.710;2023-04-25T10:51:32;11.67;64.47
67157;SHT31;54086;50.126;8.710;2023-04-25T10:54:03;11.62;64.99
67157;SHT31;54086;50.126;8.710;2023-04-25T10:56:38;11.74;64.73
67157;SHT31;54086;50.126;8.710;2023-04-25T11:01:38;11.95;64.40
67157;SHT31;54086;50.126;8.710;2023-04-25T11:04:03;11.82;63.84
67157;SHT31;54086;50.126;8.710;2023-04-25T11:06:43;11.83;64.49
67157;SHT31;54086;50.126;8.710;2023-04-25T11:09:11;11.75;63.88
67157;SHT31;54086;50.126;8.710;2023-04-25T11:11:39;12.06;63.25
67157;SHT31;54086;50.126;8.710;2023-04-25T11:14:04;12.26;61.48
67157;SHT31;54086;50.126;8.710;2023-04-25T11:16:30;12.41;62.20
67157;SHT31;54086;50.126;8.710;2023-04-25T11:18:57;12.65;61.31
67157;SHT31;54086;50.126;8.710;2023-04-25T11:21:23;12.09;61.74
67157;SHT31;54086;50.126;8.710;2023-04-25T11:23:48;11.92;63.03
67157;SHT31;54086;50.126;8.710;2023-04-25T11:26:14;12.00;62.89
67157;SHT31;54086;50.126;8.710;2023-04-25T11:28:40;11.99;62.70
67157;SHT31;54086;50.126;8.710;2023-04-25T11:31:05;12.05;61.92
67157;SHT31;54086;50.126;8.710;2023-04-25T11:33:33;11.85;62.34
67157;SHT31;54086;50.126;8.710;2023-04-25T11:35:58;12.05;62.24
67157;SHT31;54086;50.126;8.710;2023-04-25T11:38:26;12.34;60.11
67157;SHT31;54086;50.126;8.710;2023-04-25T11:40:54;13.22;57.23
67157;SHT31;54086;50.126;8.710;2023-04-25T11:43:21;13.63;57.33
67157;SHT31;54086;50.126;8.710;2023-04-25T11:45:49;14.00;53.94
67157;SHT31;54086;50.126;8.710;2023-04-25T11:48:16;13.50;55.39
67157;SHT31;54086;50.126;8.710;2023-04-25T11:50:41;13.26;55.63
67157;SHT31;54086;50.126;8.710;2023-04-25T11:53:07;13.16;55.83
67157;SHT31;54086;50.126;8.710;2023-04-25T11:55:34;12.89;56.18
67157;SHT31;54086;50.126;8.710;2023-04-25T11:58:00;12.84;55.78
67157;SHT31;54086;50.126;8.710;2023-04-25T12:00:27;12.53;55.80
67157;SHT31;54086;50.126;8.710;2023-04-25T12:02:54;12.53;55.31
67157;SHT31;54086;50.126;8.710;2023-04-25T12:05:23;12.37;55.22
67157;SHT31;54086;50.126;8.710;2023-04-25T12:07:48;12.53;55.74
67157;SHT31;54086;50.126;8.710;2023-04-25T12:10:15;12.48;56.09
67157;SHT31;54086;50.126;8.710;2023-04-25T12:12:43;12.26;56.48
67157;SHT31;54086;50.126;8.710;2023-04-25T12:15:22;12.27;56.81
67157;SHT31;54086;50.126;8.710;2023-04-25T12:17:50;12.46;56.61
67157;SHT31;54086;50.126;8.710;2023-04-25T12:20:21;12.51;56.18
67157;SHT31;54086;50.126;8.710;2023-04-25T12:22:49;12.41;56.13
67157;SHT31;54086;50.126;8.710;2023-04-25T12:25:41;12.48;55.85
67157;SHT31;54086;50.126;8.710;2023-04-25T12:28:18;12.36;56.23
67157;SHT31;54086;50.126;8.710;2023-04-25T12:30:53;12.26;56.95
67157;SHT31;54086;50.126;8.710;2023-04-25T12:33:18;11.88;57.73
67157;SHT31;54086;50.126;8.710;2023-04-25T12:35:44;11.95;58.24
67157;SHT31;54086;50.126;8.710;2023-04-25T12:38:09;11.98;58.60
67157;SHT31;54086;50.126;8.710;2023-04-25T12:40:35;12.02;59.05
67157;SHT31;54086;50.126;8.710;2023-04-25T12:43:01;12.20;58.48
67157;SHT31;54086;50.126;8.710;2023-04-25T12:45:27;12.15;58.43
67157;SHT31;54086;50.126;8.710;2023-04-25T12:47:54;12.47;58.30
67157;SHT31;54086;50.126;8.710;2023-04-25T12:50:21;12.53;58.02
67157;SHT31;54086;50.126;8.710;2023-04-25T12:52:47;12.67;57.65
67157;SHT31;54086;50.126;8.710;2023-04-25T12:55:13;12.51;57.17
67157;SHT31;54086;50.126;8.710;2023-04-25T12:57:38;12.23;58.09
67157;SHT31;54086;50.126;8.710;2023-04-25T13:00:05;12.33;57.52
67157;SHT31;54086;50.126;8.710;2023-04-25T13:02:33;12.09;57.83
67157;SHT31;54086;50.126;8.710;2023-04-25T13:04:58;12.57;57.22
67157;SHT31;54086;50.126;8.710;2023-04-25T13:07:27;12.54;55.26
67157;SHT31;54086;50.126;8.710;2023-04-25T13:09:53;12.34;55.50
67157;SHT31;54086;50.126;8.710;2023-04-25T13:12:21;12.63;55.74
67157;SHT31;54086;50.126;8.710;2023-04-25T13:14:46;12.87;55.20
67157;SHT31;54086;50.126;8.710;2023-04-25T13:17:13;13.20;54.26
67157;SHT31;54086;50.126;8.710;2023-04-25T13:19:40;13.76;53.39
67157;SHT31;54086;50.126;8.710;2023-04-25T13:22:07;13.26;52.83
67157;SHT31;54086;50.126;8.710;2023-04-25T13:24:35;13.01;53.94
67157;SHT31;54086;50.126;8.710;2023-04-25T13:27:02;12.92;54.67
67157;SHT31;54086;50.126;8.710;2023-04-25T13:29:29;12.88;54.07
67157;SHT31;54086;50.126;8.710;2023-04-25T13:31:55;13.55;52.91
67157;SHT31;54086;50.126;8.710;2023-04-25T13:34:20;13.40;53.36
67157;SHT31;54086;50.126;8.710;2023-04-25T13:36:49;13.34;52.63
67157;SHT31;54086;50.126;8.710;2023-04-25T13:39:18;13.45;53.07
67157;SHT31;54086;50.126;8.710;2023-04-25T13:41:44;12.83;53.42
67157;SHT31;54086;50.126;8.710;2023-04-25T13:44:10;12.84;53.71
67157;SHT31;54086;50.126;8.710;2023-04-25T13:46:35;12.89;53.57
67157;SHT31;54086;50.126;8.710;2023-04-25T13:49:05;12.78;53.57
67157;SHT31;54086;50.126;8.710;2023-04-25T13:51:32;12.65;53.27
67157;SHT31;54086;50.126;8.710;2023-04-25T13:53:57;12.64;53.63
67157;SHT31;54086;50.126;8.710;2023-04-25T13:56:23;12.88;53.85
67157;SHT31;54086;50.126;8.710;2023-04-25T13:58:51;12.98;53.60
67157;SHT31;54086;50.126;8.710;2023-04-25T14:01:17;12.97;53.73
67157;SHT31;54086;50.126;8.710;2023-04-25T14:03:43;13.12;53.33
67157;SHT31;54086;50.126;8.710;2023-04-25T14:06:10;13.40;53.49
67157;SHT31;54086;50.126;8.710;2023-04-25T14:08:38;13.74;52.12
67157;SHT31;54086;50.126;8.710;2023-04-25T14:11:03;13.88;51.32
67157;SHT31;54086;50.126;8.710;2023-04-25T14:13:29;13.98;51.45
67157;SHT31;54086;50.126;8.710;2023-04-25T14:15:57;14.55;50.71
67157;SHT31;54086;50.126;8.710;2023-04-25T14:18:22;14.79;48.90
67157;SHT31;54086;50.126;8.710;2023-04-25T14:20:48;15.48;48.62
67157;SHT31;54086;50.126;8.710;2023-04-25T14:23:15;14.79;47.55
67157;SHT31;54086;50.126;8.710;2023-04-25T14:25:40;14.41;48.09
67157;SHT31;54086;50.126;8.710;2023-04-25T14:28:07;13.69;49.44
67157;SHT31;54086;50.126;8.710;2023-04-25T14:30:33;13.70;49.48
67157;SHT31;54086;50.126;8.710;2023-04-25T14:32:58;13.55;49.96
67157;SHT31;54086;50.126;8.710;2023-04-25T14:35:24;13.19;50.50
67157;SHT31;54086;50.126;8.710;2023-04-25T14:37:49;13.35;50.72
67157;SHT31;54086;50.126;8.710;2023-04-25T14:40:15;13.01;50.91
67157;SHT31;54086;50.126;8.710;2023-04-25T14:42:42;13.32;50.80
67157;SHT31;54086;50.126;8.710;2023-04-25T14:45:08;13.28;50.40
67157;SHT31;54086;50.126;8.710;2023-04-25T14:47:37;13.08;50.80
67157;SHT31;54086;50.126;8.710;2023-04-25T14:50:02;12.91;50.79
67157;SHT31;54086;50.126;8.710;2023-04-25T14:52:29;12.91;51.02
67157;SHT31;54086;50.126;8.710;2023-04-25T14:54:56;12.91;51.20
67157;SHT31;54086;50.126;8.710;2023-04-25T14:57:22;12.89;50.89
67157;SHT31;54086;50.126;8.710;2023-04-25T14:59:47;12.92;51.25
67157;SHT31;54086;50.126;8.710;2023-04-25T15:02:13;12.83;50.98
67157;SHT31;54086;50.126;8.710;2023-04-25T15:04:39;12.88;51.40
67157;SHT31;54086;50.126;8.710;2023-04-25T15:07:04;13.01;51.47
67157;SHT31;54086;50.126;8.710;2023-04-25T15:09:31;12.92;51.12
67157;SHT31;54086;50.126;8.710;2023-04-25T15:12:05;12.65;51.49
67157;SHT31;54086;50.126;8.710;2023-04-25T15:14:31;12.87;51.95
67157;SHT31;54086;50.126;8.710;2023-04-25T15:16:56;12.85;52.20
67157;SHT31;54086;50.126;8.710;2023-04-25T15:19:23;12.95;52.32
67157;SHT31;54086;50.126;8.710;2023-04-25T15:21:48;12.84;52.47
67157;SHT31;54086;50.126;8.710;2023-04-25T15:24:14;12.74;52.31
67157;SHT31;54086;50.126;8.710;2023-04-25T15:26:40;12.74;51.35
67157;SHT31;54086;50.126;8.710;2023-04-25T15:29:05;12.65;50.41
67157;SHT31;54086;50.126;8.710;2023-04-25T15:31:31;12.69;50.01
67157;SHT31;54086;50.126;8.710;2023-04-25T15:33:59;12.68;49.55
67157;SHT31;54086;50.126;8.710;2023-04-25T15:36:24;13.88;47.59
67157;SHT31;54086;50.126;8.710;2023-04-25T15:38:50;14.58;48.33